Aviation Digital Data Service (ADDS)

Output produced by METARs form (0903 UTC 18 February 2019)
found at http://www.aviationweather.gov/metar/data/
 
Forecast for: PACD (COLD BAY , AK, US)
Text: PACD 180538Z 1806/1906 18019G29KT 6SM -SN BR FEW015 BKN035 OVC045
Forecast period: 0600 to 1000 UTC 18 February 2019
Forecast type: FROM: standard forecast or significant change
Winds: from the S (180 degrees) at 22 MPH (19 knots; 9.8 m/s)
gusting to 33 MPH (29 knots; 14.9 m/s)
Visibility: 6 miles (10 km)
Ceiling: 3500 feet AGL
Clouds: few clouds at 1500 feet AGL
broken clouds at 3500 feet AGL
overcast cloud deck at 4500 feet AGL
Weather: -SN BR  (light snow, mist)
Text: FM181000 21035G45KT 2SM -SHRA BR BKN025
Forecast period: 1000 UTC 18 February 2019 to 0300 UTC 19 February 2019
Forecast type: FROM: standard forecast or significant change
Winds: from the SSW (210 degrees) at 40 MPH (35 knots; 18.0 m/s)
gusting to 52 MPH (45 knots; 23.1 m/s)
Visibility: 2.00 miles (3.22 km)
Ceiling: 2500 feet AGL
Clouds: broken clouds at 2500 feet AGL
Weather: -SHRA BR  (light rain showers, mist)
Text: FM190300 29025G35KT P6SM BKN025
Forecast period: 0300 to 0600 UTC 19 February 2019
Forecast type: FROM: standard forecast or significant change
Winds: from the WNW (290 degrees) at 29 MPH (25 knots; 12.9 m/s)
gusting to 40 MPH (35 knots; 18.0 m/s)
Visibility: 6 or more miles 10+ km)
Ceiling: 2500 feet AGL
Clouds: broken clouds at 2500 feet AGL
Weather: no significant weather forecast for this period